createdAt,value
2022-09-09T00:00:13.576Z,21.07
2022-09-09T00:02:44.870Z,21.77
2022-09-09T00:05:23.897Z,22.63
2022-09-09T00:07:54.377Z,21.77
2022-09-09T00:10:29.680Z,24.13
2022-09-09T00:13:03.485Z,22.47
2022-09-09T00:15:39.355Z,23.37
2022-09-09T00:18:19.254Z,24.97
2022-09-09T00:20:52.754Z,22.93
2022-09-09T00:23:26.883Z,23.47
2022-09-09T00:26:04.532Z,23.83
2022-09-09T00:28:35.411Z,25.80
2022-09-09T00:31:13.999Z,24.37
2022-09-09T00:33:43.543Z,24.20
2022-09-09T00:36:16.682Z,24.23
2022-09-09T00:38:47.796Z,24.27
2022-09-09T00:41:22.330Z,26.13
2022-09-09T00:43:58.605Z,24.07
2022-09-09T00:46:46.596Z,23.63
2022-09-09T00:49:24.406Z,23.93
2022-09-09T00:52:03.259Z,24.10
2022-09-09T00:54:40.078Z,23.43
2022-09-09T00:57:20.113Z,21.20
2022-09-09T00:59:51.260Z,22.90
2022-09-09T01:02:30.149Z,22.23
2022-09-09T01:05:04.194Z,21.53
2022-09-09T01:07:33.038Z,17.83
2022-09-09T01:10:02.804Z,19.13
2022-09-09T01:12:39.992Z,19.40
2022-09-09T01:15:12.791Z,18.77
2022-09-09T01:17:53.793Z,19.17
2022-09-09T01:20:26.468Z,19.37
2022-09-09T01:23:10.780Z,19.33
2022-09-09T01:26:26.106Z,19.17
2022-09-09T01:28:54.829Z,19.80
2022-09-09T01:31:27.398Z,19.70
2022-09-09T01:33:55.094Z,20.63
2022-09-09T01:36:30.201Z,19.60
2022-09-09T01:38:58.134Z,18.33
2022-09-09T01:41:27.313Z,18.60
2022-09-09T01:43:56.848Z,17.50
2022-09-09T01:46:25.303Z,15.33
2022-09-09T01:48:54.296Z,13.90
2022-09-09T01:51:22.169Z,13.90
2022-09-09T01:53:49.934Z,14.07
2022-09-09T01:56:29.267Z,14.27
2022-09-09T01:59:10.298Z,14.87
2022-09-09T02:01:51.823Z,14.53
2022-09-09T02:04:32.945Z,15.20
2022-09-09T02:07:02.511Z,16.20
2022-09-09T02:09:32.544Z,15.57
2022-09-09T02:12:08.170Z,14.67
2022-09-09T02:14:42.877Z,14.90
2022-09-09T02:17:12.725Z,13.40
2022-09-09T02:19:47.149Z,13.67
2022-09-09T02:22:15.401Z,14.63
2022-09-09T02:24:43.118Z,14.67
2022-09-09T02:27:12.978Z,14.17
2022-09-09T02:29:45.443Z,14.93
2022-09-09T02:32:17.673Z,14.70
2022-09-09T02:34:49.946Z,15.40
2022-09-09T02:37:20.491Z,15.53
2022-09-09T02:39:48.620Z,15.63
2022-09-09T02:42:16.799Z,15.17
2022-09-09T02:44:47.132Z,15.10
2022-09-09T02:47:27.017Z,14.90
2022-09-09T02:50:05.321Z,12.93
2022-09-09T02:52:41.216Z,14.67
2022-09-09T02:55:14.242Z,15.20
2022-09-09T02:57:44.048Z,15.43
2022-09-09T03:00:14.378Z,15.70
2022-09-09T03:02:43.189Z,14.97
2022-09-09T03:05:11.027Z,15.63
2022-09-09T03:07:40.353Z,16.30
2022-09-09T03:10:09.053Z,15.90
2022-09-09T03:12:36.769Z,15.17
2022-09-09T03:15:05.061Z,16.03
2022-09-09T03:17:34.144Z,15.93
2022-09-09T03:20:02.554Z,16.73
2022-09-09T03:22:30.290Z,17.20
2022-09-09T03:24:58.001Z,16.90
2022-09-09T03:27:25.876Z,17.20
2022-09-09T03:29:53.854Z,18.37
2022-09-09T03:32:23.410Z,19.23
2022-09-09T03:34:53.123Z,19.57
2022-09-09T03:37:21.024Z,18.17
2022-09-09T03:39:49.007Z,19.70
2022-09-09T03:42:19.676Z,21.53
2022-09-09T03:44:51.093Z,19.80
2022-09-09T03:47:20.231Z,19.10
2022-09-09T03:49:48.148Z,18.47
2022-09-09T03:52:21.658Z,18.83
2022-09-09T03:54:51.217Z,19.43
2022-09-09T03:57:18.935Z,19.97
2022-09-09T03:59:46.646Z,18.50
2022-09-09T04:02:14.476Z,19.30
2022-09-09T04:04:42.218Z,20.03
2022-09-09T04:07:09.973Z,19.33
2022-09-09T04:09:39.040Z,19.23
2022-09-09T04:12:07.638Z,19.73
2022-09-09T04:14:35.541Z,19.40
2022-09-09T04:17:07.086Z,19.80
2022-09-09T04:19:34.936Z,20.77
2022-09-09T04:22:02.672Z,20.90
2022-09-09T04:24:30.357Z,19.90
2022-09-09T04:26:59.468Z,21.77
2022-09-09T04:29:27.243Z,21.47
2022-09-09T04:31:55.072Z,20.50
2022-09-09T04:34:22.897Z,22.10
2022-09-09T04:36:50.598Z,21.73
2022-09-09T04:39:18.276Z,24.40
2022-09-09T04:41:46.400Z,21.17
2022-09-09T04:44:15.498Z,21.63
2022-09-09T04:46:46.088Z,21.33
2022-09-09T04:49:15.341Z,21.67
2022-09-09T04:51:43.924Z,19.37
2022-09-09T04:54:12.703Z,19.83
2022-09-09T04:56:42.623Z,20.77
2022-09-09T04:59:10.853Z,20.30
2022-09-09T05:01:39.958Z,20.87
2022-09-09T05:04:07.700Z,21.07
2022-09-09T05:06:37.124Z,21.10
2022-09-09T05:09:05.004Z,20.93
2022-09-09T05:11:37.845Z,22.00
2022-09-09T05:14:06.023Z,21.23
2022-09-09T05:16:34.467Z,19.47
2022-09-09T05:19:04.321Z,21.00
2022-09-09T05:21:32.862Z,20.37
2022-09-09T05:24:01.801Z,22.37
2022-09-09T05:26:30.661Z,23.70
2022-09-09T05:29:00.014Z,24.87
2022-09-09T05:31:29.353Z,23.63
2022-09-09T05:33:57.119Z,26.23
2022-09-09T05:36:26.199Z,26.67
2022-09-09T05:38:54.792Z,28.47
2022-09-09T05:41:24.015Z,27.53
2022-09-09T05:43:51.839Z,28.50
2022-09-09T05:46:21.666Z,29.87
2022-09-09T05:48:51.659Z,30.27
2022-09-09T05:51:22.775Z,29.53
2022-09-09T05:53:52.780Z,29.83
2022-09-09T05:56:22.839Z,29.43
2022-09-09T05:58:51.411Z,31.30
2022-09-09T06:01:20.372Z,30.50
2022-09-09T06:03:49.429Z,29.83
2022-09-09T06:06:19.211Z,30.00
2022-09-09T06:08:47.282Z,30.60
2022-09-09T06:11:18.569Z,30.17
2022-09-09T06:13:46.849Z,29.73
2022-09-09T06:16:16.947Z,28.27
2022-09-09T06:18:45.297Z,27.30
2022-09-09T06:21:17.769Z,27.27
2022-09-09T06:23:46.417Z,26.63
2022-09-09T06:26:18.324Z,27.13
2022-09-09T06:28:47.089Z,26.50
2022-09-09T06:31:18.394Z,24.67
2022-09-09T06:33:46.247Z,23.50
2022-09-09T06:36:15.884Z,24.13
2022-09-09T06:38:44.111Z,25.03
2022-09-09T06:41:13.305Z,24.20
2022-09-09T06:43:42.434Z,22.30
2022-09-09T06:46:14.204Z,21.90
2022-09-09T06:48:42.747Z,21.77
2022-09-09T06:51:12.484Z,19.93
2022-09-09T06:53:43.039Z,19.77
2022-09-09T06:56:22.770Z,19.27
2022-09-09T06:58:52.927Z,20.23
2022-09-09T07:01:22.241Z,18.60
2022-09-09T07:03:52.129Z,20.27
2022-09-09T07:06:21.668Z,20.20
2022-09-09T07:08:56.539Z,20.23
2022-09-09T07:11:27.904Z,22.93
2022-09-09T07:13:58.670Z,22.00
2022-09-09T07:16:26.955Z,21.93
2022-09-09T07:18:58.769Z,22.63
2022-09-09T07:21:27.919Z,22.43
2022-09-09T07:23:56.289Z,22.33
2022-09-09T07:26:26.195Z,22.70
2022-09-09T07:28:54.530Z,21.83
2022-09-09T07:31:26.110Z,22.13
2022-09-09T07:33:54.374Z,23.13
2022-09-09T07:36:23.769Z,24.23
2022-09-09T07:38:54.104Z,24.43
2022-09-09T07:41:25.725Z,24.83
2022-09-09T07:43:54.876Z,24.63
2022-09-09T07:46:27.614Z,22.90
2022-09-09T07:48:57.210Z,23.80
2022-09-09T07:51:27.526Z,23.37
2022-09-09T07:53:58.503Z,21.90
2022-09-09T07:56:27.806Z,22.87
2022-09-09T07:58:57.634Z,20.53
2022-09-09T08:01:29.113Z,22.37
2022-09-09T08:04:00.151Z,22.80
2022-09-09T08:06:28.869Z,23.30
2022-09-09T08:08:56.913Z,23.60
2022-09-09T08:11:26.929Z,24.80
2022-09-09T08:13:58.989Z,24.70
2022-09-09T08:16:33.007Z,23.13
2022-09-09T08:19:01.229Z,24.03
2022-09-09T08:21:31.466Z,21.90
2022-09-09T08:24:01.022Z,22.50
2022-09-09T08:26:30.593Z,21.73
2022-09-09T08:29:00.392Z,22.03
2022-09-09T08:31:31.228Z,23.57
2022-09-09T08:34:00.526Z,22.73
2022-09-09T08:36:30.133Z,23.30
2022-09-09T08:38:59.306Z,24.00
2022-09-09T08:42:02.316Z,23.07
2022-09-09T08:44:45.597Z,23.13
2022-09-09T08:47:23.850Z,22.20
2022-09-09T08:50:05.636Z,22.17
2022-09-09T08:52:40.714Z,21.87
2022-09-09T08:55:23.373Z,22.57
2022-09-09T08:57:53.350Z,20.97
2022-09-09T09:00:21.864Z,21.20
2022-09-09T09:03:03.911Z,20.10
2022-09-09T09:05:38.787Z,18.30
2022-09-09T09:08:15.974Z,17.87
2022-09-09T09:10:49.036Z,18.20
2022-09-09T09:13:19.580Z,18.43
2022-09-09T09:15:51.914Z,16.73
2022-09-09T09:18:21.287Z,16.37
2022-09-09T09:21:00.753Z,15.40
2022-09-09T09:23:41.284Z,15.97
2022-09-09T09:26:12.919Z,16.07
2022-09-09T09:28:42.244Z,15.93
2022-09-09T09:31:12.730Z,16.60
2022-09-09T09:33:51.729Z,16.80
2022-09-09T09:36:19.462Z,17.13
2022-09-09T09:41:46.858Z,15.93
2022-09-09T09:44:25.785Z,15.13
2022-09-09T09:46:54.069Z,14.23
2022-09-09T09:49:24.077Z,12.63
2022-09-09T09:51:53.579Z,12.40
2022-09-09T09:54:29.946Z,11.53
2022-09-09T09:56:58.923Z,11.90
2022-09-09T09:59:40.275Z,11.00
2022-09-09T10:02:16.669Z,10.70
2022-09-09T10:04:46.691Z,11.07
2022-09-09T10:07:15.027Z,10.53
2022-09-09T10:09:42.818Z,10.03
2022-09-09T10:12:23.810Z,9.10
2022-09-09T10:15:00.247Z,8.60
2022-09-09T10:17:38.321Z,7.80
2022-09-09T10:20:33.162Z,8.80
2022-09-09T10:23:12.409Z,8.97
2022-09-09T10:26:05.222Z,8.50
2022-09-09T10:28:53.127Z,8.07
2022-09-09T10:31:29.704Z,7.00
2022-09-09T10:34:11.536Z,7.37
2022-09-09T10:36:46.451Z,6.60
2022-09-09T10:39:24.946Z,8.00
2022-09-09T10:42:03.669Z,7.73
2022-09-09T10:44:45.293Z,7.83
2022-09-09T10:47:58.290Z,7.13
2022-09-09T10:51:03.927Z,7.23
2022-09-09T10:53:48.475Z,7.50
2022-09-09T10:56:20.832Z,7.80
2022-09-09T10:58:52.450Z,7.53
2022-09-09T11:01:24.530Z,8.23
2022-09-09T11:03:57.625Z,7.67
2022-09-09T11:06:31.370Z,6.53
2022-09-09T11:09:04.049Z,6.20
2022-09-09T11:11:37.991Z,6.83
2022-09-09T11:14:14.378Z,6.77
2022-09-09T11:16:49.081Z,5.83
2022-09-09T11:19:23.148Z,5.43
2022-09-09T11:21:52.988Z,4.80
2022-09-09T11:24:27.957Z,4.60
2022-09-09T11:27:00.866Z,4.50
2022-09-09T11:29:48.531Z,4.87
2022-09-09T11:32:37.127Z,5.57
2022-09-09T11:35:22.792Z,5.20
2022-09-09T11:38:06.057Z,5.33
2022-09-09T11:40:35.994Z,5.53
2022-09-09T11:43:06.905Z,6.40
2022-09-09T11:45:37.015Z,7.13
2022-09-09T11:48:06.918Z,6.23
2022-09-09T11:50:37.490Z,6.20
2022-09-09T11:53:21.135Z,6.97
2022-09-09T11:55:50.801Z,6.40
2022-09-09T11:58:21.404Z,5.70
2022-09-09T12:00:51.094Z,5.93
2022-09-09T12:03:44.070Z,5.60
2022-09-09T12:06:15.699Z,5.50
2022-09-09T12:08:45.876Z,4.93
2022-09-09T12:11:26.733Z,4.90
2022-09-09T12:13:56.452Z,4.50
2022-09-09T12:16:35.514Z,4.80
2022-09-09T12:19:09.344Z,3.50
2022-09-09T12:21:46.845Z,3.40
2022-09-09T12:24:22.322Z,3.40
2022-09-09T12:27:01.201Z,3.23
2022-09-09T12:29:39.214Z,3.00
2022-09-09T12:32:12.448Z,3.10
2022-09-09T12:34:42.562Z,3.17
2022-09-09T12:37:20.446Z,3.03
2022-09-09T12:39:54.022Z,3.23
2022-09-09T12:42:24.499Z,3.63
2022-09-09T12:44:59.839Z,4.23
2022-09-09T12:47:37.095Z,4.43
2022-09-09T12:50:05.509Z,4.67
2022-09-09T12:52:35.258Z,4.10
2022-09-09T12:55:06.157Z,4.00
2022-09-09T12:57:38.241Z,4.80
2022-09-09T13:00:11.034Z,11.63
2022-09-09T13:02:47.901Z,4.70
2022-09-09T13:05:22.179Z,4.30
2022-09-09T13:07:50.063Z,3.30
2022-09-09T13:10:36.754Z,3.00
2022-09-09T13:13:17.372Z,2.97
2022-09-09T13:15:53.108Z,4.70
2022-09-09T13:18:24.680Z,3.27
2022-09-09T13:20:53.584Z,3.60
2022-09-09T13:23:22.626Z,3.47
2022-09-09T13:25:58.315Z,3.30
2022-09-09T13:28:34.141Z,3.43
2022-09-09T13:31:04.312Z,3.00
2022-09-09T13:33:35.062Z,3.60
2022-09-09T13:36:06.065Z,3.70
2022-09-09T13:38:36.846Z,3.50
2022-09-09T13:41:06.883Z,3.23
2022-09-09T13:43:39.510Z,3.00
2022-09-09T13:46:25.424Z,3.53
2022-09-09T13:48:56.946Z,3.77
2022-09-09T13:51:34.371Z,3.20
2022-09-09T13:54:02.217Z,3.20
2022-09-09T13:56:30.300Z,3.53
2022-09-09T13:58:59.550Z,3.73
2022-09-09T14:01:29.719Z,4.10
2022-09-09T14:03:57.677Z,4.13
2022-09-09T14:06:26.044Z,4.03
2022-09-09T14:08:55.481Z,4.27
2022-09-09T14:11:23.825Z,4.30
2022-09-09T14:13:51.923Z,3.97
2022-09-09T14:16:22.690Z,4.63
2022-09-09T14:18:50.553Z,4.83
2022-09-09T14:21:18.292Z,4.73
2022-09-09T14:23:46.033Z,4.73
2022-09-09T14:26:14.261Z,5.53
2022-09-09T14:28:54.792Z,5.70
2022-09-09T14:31:25.722Z,4.93
2022-09-09T14:33:53.625Z,4.90
2022-09-09T14:36:21.968Z,5.57
2022-09-09T14:38:49.842Z,5.00
2022-09-09T14:41:20.699Z,5.57
2022-09-09T14:43:48.678Z,3.23
2022-09-09T14:46:18.117Z,3.20
2022-09-09T14:48:49.572Z,2.43
2022-09-09T14:51:20.487Z,3.50
2022-09-09T14:53:48.695Z,3.30
2022-09-09T14:56:18.099Z,3.17
2022-09-09T14:58:45.900Z,2.77
2022-09-09T15:01:16.028Z,2.83
2022-09-09T15:03:45.434Z,2.93
2022-09-09T15:06:16.352Z,3.10
2022-09-09T15:08:46.610Z,2.63
2022-09-09T15:11:15.935Z,2.50
2022-09-09T15:13:45.088Z,2.93
2022-09-09T15:16:15.607Z,2.70
2022-09-09T15:18:45.840Z,2.70
2022-09-09T15:21:16.908Z,5.20
2022-09-09T15:23:45.412Z,3.20
2022-09-09T15:26:15.068Z,4.70
2022-09-09T15:28:44.668Z,3.10
2022-09-09T15:31:19.672Z,3.33
2022-09-09T15:33:49.968Z,3.07
2022-09-09T15:36:24.786Z,3.20
2022-09-09T15:38:53.408Z,3.80
2022-09-09T15:41:22.580Z,3.37
2022-09-09T15:43:52.786Z,15.60
2022-09-09T15:46:33.183Z,17.07
2022-09-09T15:49:06.201Z,6.73
2022-09-09T15:51:42.860Z,3.80
2022-09-09T15:54:13.184Z,5.27
2022-09-09T15:56:41.269Z,4.30
2022-09-09T15:59:09.104Z,6.83
2022-09-09T16:01:37.387Z,5.23
2022-09-09T16:04:05.258Z,36.93
2022-09-09T16:06:34.331Z,12.40
2022-09-09T16:09:06.832Z,4.97
2022-09-09T16:11:37.129Z,9.73
2022-09-09T16:14:06.361Z,4.50
2022-09-09T16:16:36.183Z,5.30
2022-09-09T16:19:07.563Z,5.17
2022-09-09T16:21:38.468Z,5.10
2022-09-09T16:24:11.182Z,4.90
2022-09-09T16:26:41.975Z,5.60
2022-09-09T16:29:10.395Z,5.00
2022-09-09T16:31:38.820Z,5.70
2022-09-09T16:34:06.598Z,5.97
2022-09-09T16:36:36.863Z,6.10
2022-09-09T16:39:08.291Z,5.43
2022-09-09T16:41:36.190Z,11.40
2022-09-09T16:44:05.789Z,9.83
2022-09-09T16:46:36.404Z,9.63
2022-09-09T16:49:07.289Z,10.33
2022-09-09T16:51:36.912Z,8.27
2022-09-09T16:54:08.837Z,7.43
2022-09-09T16:56:38.964Z,8.50
2022-09-09T16:59:08.813Z,6.27
2022-09-09T17:01:39.041Z,5.67
2022-09-09T17:04:09.372Z,5.97
2022-09-09T17:06:37.788Z,5.23
2022-09-09T17:09:09.179Z,5.30
2022-09-09T17:11:37.732Z,4.97
2022-09-09T17:14:06.647Z,3.47
2022-09-09T17:16:36.124Z,3.73
2022-09-09T17:19:05.791Z,3.27
2022-09-09T17:21:34.529Z,2.83
2022-09-09T17:24:02.787Z,2.30
2022-09-09T17:26:34.069Z,1.80
2022-09-09T17:29:02.926Z,1.83
2022-09-09T17:31:33.523Z,1.70
2022-09-09T17:34:02.490Z,1.43
2022-09-09T17:36:32.402Z,1.00
2022-09-09T17:39:01.080Z,0.97
2022-09-09T17:41:32.231Z,0.90
2022-09-09T17:44:00.748Z,0.90
2022-09-09T17:46:30.823Z,0.70
2022-09-09T17:49:01.285Z,0.80
2022-09-09T17:51:30.647Z,0.73
2022-09-09T17:54:00.788Z,0.80
2022-09-09T17:56:31.588Z,1.00
2022-09-09T17:59:01.694Z,0.80
2022-09-09T18:01:31.899Z,1.03
2022-09-09T18:04:02.166Z,1.00
2022-09-09T18:06:33.837Z,1.10
2022-09-09T18:09:03.721Z,1.00
2022-09-09T18:11:34.919Z,1.23
2022-09-09T18:14:04.734Z,1.20
2022-09-09T18:16:36.175Z,1.30
2022-09-09T18:19:05.484Z,1.50
2022-09-09T18:21:34.728Z,1.30
2022-09-09T18:24:04.276Z,1.50
2022-09-09T18:26:33.679Z,1.80
2022-09-09T18:29:04.283Z,1.67
2022-09-09T18:31:34.330Z,1.60
2022-09-09T18:34:03.918Z,1.47
2022-09-09T18:36:34.787Z,34.17
2022-09-09T18:39:04.008Z,33.70
2022-09-09T18:41:33.814Z,10.10
2022-09-09T18:44:03.545Z,2.23
2022-09-09T18:46:34.797Z,1.73
2022-09-09T18:49:03.620Z,1.50
2022-09-09T18:51:33.556Z,1.90
2022-09-09T18:54:03.071Z,1.80
2022-09-09T18:56:32.200Z,2.20
2022-09-09T18:59:02.561Z,2.13
2022-09-09T19:01:31.598Z,2.27
2022-09-09T19:04:02.069Z,2.43
2022-09-09T19:06:32.720Z,2.47
2022-09-09T19:09:03.726Z,2.87
2022-09-09T19:11:33.256Z,3.10
2022-09-09T19:14:03.121Z,2.80
2022-09-09T19:16:32.581Z,3.00
2022-09-09T19:19:03.095Z,3.00
2022-09-09T19:21:33.492Z,2.70
2022-09-09T19:24:04.139Z,3.00
2022-09-09T19:26:40.513Z,2.37
2022-09-09T19:29:10.158Z,2.60
2022-09-09T19:31:38.829Z,2.63
2022-09-09T19:34:09.688Z,2.60
2022-09-09T19:36:37.523Z,2.43
2022-09-09T19:39:06.650Z,2.90
2022-09-09T19:41:34.381Z,2.90
2022-09-09T19:44:06.111Z,2.87
2022-09-09T19:46:35.778Z,32.63
2022-09-09T19:49:04.268Z,3.23
2022-09-09T19:51:36.411Z,7.03
2022-09-09T19:54:08.208Z,9.33
2022-09-09T19:56:37.910Z,4.00
2022-09-09T19:59:06.462Z,4.10
2022-09-09T20:01:40.070Z,3.60
2022-09-09T20:04:09.010Z,3.10
2022-09-09T20:06:39.875Z,3.50
2022-09-09T20:09:11.491Z,3.50
2022-09-09T20:11:39.854Z,2.87
2022-09-09T20:14:08.374Z,2.60
2022-09-09T20:16:36.741Z,2.70
2022-09-09T20:19:06.432Z,2.60
2022-09-09T20:21:36.618Z,2.40
2022-09-09T20:24:07.695Z,2.40
2022-09-09T20:26:37.590Z,2.17
2022-09-09T20:29:07.642Z,2.27
2022-09-09T20:31:40.052Z,2.00
2022-09-09T20:34:09.971Z,2.00
2022-09-09T20:36:38.779Z,1.70
2022-09-09T20:39:10.211Z,1.70
2022-09-09T20:41:39.679Z,2.30
2022-09-09T20:44:09.383Z,2.20
2022-09-09T20:46:39.533Z,1.90
2022-09-09T20:49:08.896Z,1.80
2022-09-09T20:51:37.423Z,1.80
2022-09-09T20:54:08.631Z,2.10
2022-09-09T20:56:39.361Z,1.83
2022-09-09T20:59:10.260Z,1.90
2022-09-09T21:01:38.844Z,2.03
2022-09-09T21:04:06.729Z,2.57
2022-09-09T21:06:34.720Z,2.10
2022-09-09T21:09:02.691Z,1.70
2022-09-09T21:11:31.827Z,2.30
2022-09-09T21:13:59.639Z,2.03
2022-09-09T21:16:27.996Z,1.80
2022-09-09T21:18:55.832Z,1.70
2022-09-09T21:21:23.864Z,1.83
2022-09-09T21:23:55.716Z,1.60
2022-09-09T21:26:23.919Z,1.90
2022-09-09T21:28:53.541Z,2.00
2022-09-09T21:31:26.967Z,1.77
2022-09-09T21:33:55.757Z,1.80
2022-09-09T21:36:23.490Z,2.03
2022-09-09T21:38:51.306Z,2.03
2022-09-09T21:41:19.305Z,1.90
2022-09-09T21:43:47.959Z,1.70
2022-09-09T21:46:18.064Z,1.83
2022-09-09T21:48:46.253Z,1.77
2022-09-09T21:51:16.459Z,2.33
2022-09-09T21:53:45.068Z,2.00
2022-09-09T21:56:15.736Z,1.80
2022-09-09T21:58:43.621Z,2.20
2022-09-09T22:01:12.809Z,2.10
2022-09-09T22:03:42.545Z,2.00
2022-09-09T22:06:12.609Z,2.43
2022-09-09T22:08:40.378Z,2.20
2022-09-09T22:11:09.362Z,2.10
2022-09-09T22:13:38.317Z,1.93
2022-09-09T22:16:08.134Z,2.00
2022-09-09T22:18:36.429Z,2.10
2022-09-09T22:21:08.581Z,2.20
2022-09-09T22:23:36.449Z,2.30
2022-09-09T22:26:04.542Z,2.40
2022-09-09T22:28:32.675Z,2.17
2022-09-09T22:31:00.909Z,2.33
2022-09-09T22:33:29.229Z,2.70
2022-09-09T22:35:57.201Z,2.57
2022-09-09T22:38:26.955Z,2.77
2022-09-09T22:40:54.798Z,6.67
2022-09-09T22:43:23.853Z,6.43
2022-09-09T22:45:51.855Z,4.47
2022-09-09T22:48:19.941Z,4.37
2022-09-09T22:50:48.329Z,3.30
2022-09-09T22:53:18.650Z,2.87
2022-09-09T22:55:59.330Z,3.50
2022-09-09T22:58:27.892Z,3.43
2022-09-09T23:00:58.665Z,3.50
2022-09-09T23:03:28.414Z,3.30
2022-09-09T23:05:57.993Z,3.50
2022-09-09T23:08:27.563Z,3.53
2022-09-09T23:10:56.613Z,3.20
2022-09-09T23:13:25.435Z,4.03
2022-09-09T23:15:55.202Z,3.57
2022-09-09T23:18:24.149Z,3.23
2022-09-09T23:21:00.610Z,2.90
2022-09-09T23:23:28.865Z,3.00
2022-09-09T23:25:57.939Z,3.13
2022-09-09T23:28:26.781Z,2.90
2022-09-09T23:30:54.578Z,2.80
2022-09-09T23:33:22.648Z,3.00
2022-09-09T23:35:50.751Z,3.43
2022-09-09T23:38:18.450Z,3.20
2022-09-09T23:40:47.145Z,3.30
2022-09-09T23:43:16.243Z,3.63
2022-09-09T23:45:43.951Z,3.40
2022-09-09T23:48:11.681Z,3.70
2022-09-09T23:50:39.376Z,3.30
2022-09-09T23:53:08.400Z,3.10
2022-09-09T23:55:36.612Z,3.87
2022-09-09T23:58:04.648Z,2.90
